Time;durP1;ratioP1;P1;durP2;ratioP2;P2;SDS_P1;SDS_P2;PMS_P1;PMS_P2;Temp;Humidity;BMP_temperature;BMP_pressure;BME280_temperature;BME280_humidity;BME280_pressure;Samples;Min_cycle;Max_cycle;Signal;HPM_P1;HPM_P2
2021/07/06 00:02:23;;;;;;;1.87;1.23;;;17.20;99.90;;;;;;5032666;28;20503;-50
2021/07/06 00:04:55;;;;;;;1.97;1.43;;;17.10;99.90;;;;;;5032411;28;20531;-50
2021/07/06 00:07:22;;;;;;;1.60;1.50;;;17.10;99.90;;;;;;5031843;28;20445;-49
2021/07/06 00:09:50;;;;;;;1.50;1.40;;;17.20;99.90;;;;;;5012813;28;20516;-49
2021/07/06 00:12:18;;;;;;;5.20;1.40;;;17.10;99.90;;;;;;5025518;28;20461;-50
2021/07/06 00:14:45;;;;;;;2.40;1.20;;;17.00;99.90;;;;;;5023092;28;20551;-50
2021/07/06 00:17:13;;;;;;;3.07;1.30;;;17.00;99.90;;;;;;5023016;28;20488;-50
2021/07/06 00:19:41;;;;;;;2.83;1.30;;;16.90;99.90;;;;;;5032231;28;20449;-50
2021/07/06 00:22:08;;;;;;;2.60;1.63;;;16.90;99.90;;;;;;5032109;28;20521;-50
2021/07/06 00:24:35;;;;;;;1.60;1.50;;;16.90;99.90;;;;;;5030391;28;20556;-50
2021/07/06 00:27:02;;;;;;;5.40;1.73;;;16.90;99.90;;;;;;5031853;28;20445;-50
2021/07/06 00:29:29;;;;;;;2.63;1.40;;;16.90;99.90;;;;;;5032189;28;20531;-50
2021/07/06 00:31:56;;;;;;;1.70;1.60;;;16.90;99.90;;;;;;5031396;28;20452;-49
2021/07/06 00:34:25;;;;;;;1.40;1.20;;;16.90;99.90;;;;;;5019375;28;20538;-50
2021/07/06 00:36:55;;;;;;;1.63;1.20;;;16.90;99.90;;;;;;5031769;28;20480;-50
2021/07/06 00:39:22;;;;;;;1.53;1.43;;;16.90;99.90;;;;;;5028187;28;20512;-50
2021/07/06 00:41:51;;;;;;;1.93;1.63;;;16.80;99.90;;;;;;5012352;28;20454;-49
2021/07/06 00:44:20;;;;;;;1.40;1.30;;;16.80;99.90;;;;;;5018447;28;20449;-50
2021/07/06 00:46:47;;;;;;;2.03;1.40;;;16.80;99.90;;;;;;5031398;28;20452;-49
2021/07/06 00:49:15;;;;;;;1.20;1.10;;;16.70;99.90;;;;;;5012118;28;20508;-50
2021/07/06 00:51:46;;;;;;;1.40;1.30;;;16.70;99.90;;;;;;5012686;28;20454;-49
2021/07/06 00:54:13;;;;;;;1.97;1.30;;;16.70;99.90;;;;;;5019868;28;20453;-50
2021/07/06 00:56:40;;;;;;;5.10;1.50;;;16.70;99.90;;;;;;5013590;28;20477;-49
2021/07/06 00:59:07;;;;;;;2.03;1.57;;;16.60;99.90;;;;;;5031930;28;20507;-49
2021/07/06 01:01:35;;;;;;;3.50;1.73;;;16.60;99.90;;;;;;5031807;28;20479;-50
2021/07/06 01:04:03;;;;;;;1.60;1.47;;;16.70;99.90;;;;;;5031209;28;20576;-49
2021/07/06 01:06:29;;;;;;;1.57;1.47;;;16.60;99.90;;;;;;5031769;28;20954;-50
2021/07/06 01:08:58;;;;;;;1.83;1.43;;;16.60;99.90;;;;;;5030408;28;21012;-50
2021/07/06 01:11:26;;;;;;;1.53;1.43;;;16.60;99.90;;;;;;5031242;28;20448;-50
2021/07/06 01:13:53;;;;;;;2.60;1.40;;;16.50;99.90;;;;;;5031157;28;20464;-50
2021/07/06 01:16:20;;;;;;;1.60;1.50;;;16.50;99.90;;;;;;5029773;28;20472;-50
2021/07/06 01:18:47;;;;;;;1.80;1.67;;;16.40;99.90;;;;;;5030279;28;20460;-50
2021/07/06 01:21:14;;;;;;;2.50;1.53;;;16.40;99.90;;;;;;5031555;28;20445;-50
2021/07/06 01:23:43;;;;;;;1.70;1.60;;;16.30;99.90;;;;;;5026326;28;20876;-50
2021/07/06 01:26:10;;;;;;;1.87;1.50;;;16.40;99.90;;;;;;5011730;28;21044;-50
2021/07/06 01:28:39;;;;;;;2.40;1.60;;;16.20;99.90;;;;;;5011838;28;20449;-50
2021/07/06 01:31:06;;;;;;;1.80;1.70;;;16.20;99.90;;;;;;5025570;28;20495;-50
2021/07/06 01:33:38;;;;;;;2.10;1.47;;;16.20;99.90;;;;;;5035262;28;20456;-50
2021/07/06 01:36:07;;;;;;;2.50;1.40;;;16.20;99.90;;;;;;5035561;28;20491;-50
2021/07/06 01:38:35;;;;;;;1.70;1.60;;;16.20;99.90;;;;;;5029744;28;20445;-50
2021/07/06 01:41:04;;;;;;;1.83;1.73;;;16.20;99.90;;;;;;5033904;28;20445;-50
2021/07/06 01:43:31;;;;;;;1.77;1.60;;;16.10;99.90;;;;;;5033985;28;20451;-50
2021/07/06 01:45:59;;;;;;;2.83;1.50;;;16.00;99.90;;;;;;5034964;28;20456;-50
2021/07/06 01:48:26;;;;;;;2.33;1.67;;;16.00;99.90;;;;;;5034742;28;20946;-50
2021/07/06 01:50:53;;;;;;;2.43;1.40;;;16.10;99.90;;;;;;5035327;28;20456;-50
2021/07/06 01:53:23;;;;;;;1.90;1.80;;;16.10;99.90;;;;;;5034621;28;20830;-50
2021/07/06 01:55:51;;;;;;;5.73;1.83;;;16.10;99.90;;;;;;5034488;28;20479;-50
2021/07/06 01:58:21;;;;;;;1.53;1.43;;;16.10;99.90;;;;;;5026376;28;20493;-50
2021/07/06 02:00:51;;;;;;;1.50;1.40;;;16.10;99.90;;;;;;5035300;28;20456;-50
2021/07/06 02:03:18;;;;;;;1.83;1.73;;;16.00;99.90;;;;;;5034633;28;20456;-50
2021/07/06 02:05:48;;;;;;;5.10;1.70;;;15.90;99.90;;;;;;5033339;28;20498;-49
2021/07/06 02:08:17;;;;;;;2.37;1.50;;;16.00;99.90;;;;;;5034279;28;20452;-50
2021/07/06 02:10:45;;;;;;;1.77;1.67;;;15.90;99.90;;;;;;5015074;28;20832;-50
2021/07/06 02:13:15;;;;;;;2.00;1.80;;;15.90;99.90;;;;;;5014811;28;20449;-50
2021/07/06 02:15:44;;;;;;;2.13;1.40;;;16.00;99.90;;;;;;5014863;28;21019;-50
2021/07/06 02:18:16;;;;;;;2.90;1.63;;;16.10;99.90;;;;;;5016217;28;21010;-50
2021/07/06 02:20:43;;;;;;;4.20;1.87;;;16.00;99.90;;;;;;5021717;28;20457;-50
2021/07/06 02:23:10;;;;;;;1.97;1.50;;;16.00;99.90;;;;;;5026982;28;20510;-49
2021/07/06 02:25:37;;;;;;;3.03;1.33;;;16.00;99.90;;;;;;5034494;28;20535;-50
2021/07/06 02:28:05;;;;;;;6.63;1.67;;;16.00;99.90;;;;;;5034409;28;20879;-50
2021/07/06 02:30:32;;;;;;;2.90;1.50;;;16.10;99.90;;;;;;5034601;28;20448;-50
2021/07/06 02:33:00;;;;;;;1.40;1.30;;;16.10;99.90;;;;;;5034280;28;20518;-50
2021/07/06 02:35:27;;;;;;;3.20;1.90;;;16.00;99.90;;;;;;5020065;28;20469;-50
2021/07/06 02:37:55;;;;;;;2.70;1.47;;;16.00;99.90;;;;;;5028907;28;20927;-50
2021/07/06 02:40:22;;;;;;;1.60;1.50;;;16.00;99.90;;;;;;5034478;28;20448;-49
2021/07/06 02:42:49;;;;;;;1.60;1.50;;;16.00;99.90;;;;;;5034019;28;20449;-50
2021/07/06 02:45:18;;;;;;;1.57;1.47;;;15.90;99.90;;;;;;5033779;28;20476;-50
2021/07/06 02:47:45;;;;;;;2.33;1.50;;;15.90;99.90;;;;;;5031887;28;20448;-50
2021/07/06 02:50:15;;;;;;;3.90;1.37;;;15.80;99.90;;;;;;5014332;28;20477;-50
2021/07/06 02:52:43;;;;;;;1.60;1.50;;;15.80;99.90;;;;;;5014120;28;20508;-50
2021/07/06 02:55:11;;;;;;;2.93;1.53;;;15.90;99.90;;;;;;5014357;28;20481;-50
2021/07/06 02:57:39;;;;;;;3.97;1.50;;;15.90;99.90;;;;;;5025953;28;20481;-50
2021/07/06 03:00:15;;;;;;;3.90;1.70;;;15.90;99.90;;;;;;5025646;28;20861;-50
2021/07/06 03:02:44;;;;;;;1.50;1.40;;;15.90;99.90;;;;;;5032992;28;20873;-50
2021/07/06 03:05:12;;;;;;;1.33;1.23;;;15.90;99.90;;;;;;5033971;28;20487;-49
2021/07/06 03:07:42;;;;;;;1.40;1.20;;;15.80;99.90;;;;;;5033695;28;20503;-51
2021/07/06 03:10:11;;;;;;;1.57;1.43;;;15.90;99.90;;;;;;5033881;28;20456;-50
2021/07/06 03:12:39;;;;;;;1.90;1.60;;;16.00;99.90;;;;;;5033050;28;20452;-50
2021/07/06 03:15:08;;;;;;;2.33;1.50;;;15.90;99.90;;;;;;5033510;28;20531;-50
2021/07/06 03:17:35;;;;;;;1.50;1.40;;;16.00;99.90;;;;;;5032528;28;20574;-50
2021/07/06 03:20:02;;;;;;;1.50;1.23;;;15.90;99.90;;;;;;5033789;28;20449;-50
2021/07/06 03:22:29;;;;;;;1.93;1.37;;;15.90;99.90;;;;;;5024308;28;20500;-50
2021/07/06 03:24:58;;;;;;;4.43;1.50;;;15.80;99.90;;;;;;5013647;28;20479;-49
2021/07/06 03:27:25;;;;;;;1.80;1.50;;;15.70;99.90;;;;;;5032229;28;20449;-50
2021/07/06 03:29:54;;;;;;;2.10;1.90;;;15.80;99.90;;;;;;5033343;28;20460;-50
2021/07/06 03:32:21;;;;;;;2.37;1.43;;;15.70;99.90;;;;;;5032436;28;20449;-50
2021/07/06 03:34:48;;;;;;;2.70;1.77;;;15.70;99.90;;;;;;5029120;28;20465;-51
2021/07/06 03:37:15;;;;;;;3.07;1.80;;;15.70;99.90;;;;;;5019089;28;21213;-50
2021/07/06 03:39:43;;;;;;;3.53;2.20;;;15.70;99.90;;;;;;5032918;28;20996;-50
2021/07/06 03:42:12;;;;;;;1.70;1.60;;;15.70;99.90;;;;;;5032806;28;20456;-50
2021/07/06 03:44:39;;;;;;;5.80;1.83;;;15.60;99.90;;;;;;5033190;28;20472;-50
2021/07/06 03:47:07;;;;;;;2.60;1.60;;;15.60;99.90;;;;;;5023282;28;20471;-49
2021/07/06 03:49:34;;;;;;;2.00;1.73;;;15.60;99.90;;;;;;5021230;28;20512;-50
2021/07/06 03:52:01;;;;;;;2.00;1.47;;;15.60;99.90;;;;;;5012965;28;20877;-50
2021/07/06 03:57:00;;;;;;;5.40;1.50;;;15.70;99.90;;;;;;5012522;22;1136615;-53
2021/07/06 03:59:29;;;;;;;1.90;1.57;;;15.70;99.90;;;;;;5032800;28;20214;-53
2021/07/06 04:01:56;;;;;;;6.53;1.47;;;15.80;99.90;;;;;;5030152;28;20506;-54
2021/07/06 04:04:23;;;;;;;1.63;1.50;;;15.80;99.90;;;;;;5031687;28;20444;-54
2021/07/06 04:06:51;;;;;;;2.00;1.63;;;15.80;99.90;;;;;;5031898;28;20563;-54
2021/07/06 04:09:18;;;;;;;2.23;2.00;;;15.80;99.90;;;;;;5031787;28;20444;-54
2021/07/06 04:11:45;;;;;;;3.37;2.57;;;15.90;99.90;;;;;;5031959;28;20566;-54
2021/07/06 04:14:12;;;;;;;4.13;2.20;;;16.00;99.90;;;;;;5031285;28;20879;-54
2021/07/06 04:16:40;;;;;;;6.60;2.30;;;16.00;99.90;;;;;;5030373;28;20472;-53
2021/07/06 04:19:07;;;;;;;3.33;2.27;;;16.00;99.90;;;;;;5032090;28;20487;-54
2021/07/06 04:21:35;;;;;;;7.83;2.83;;;16.10;99.90;;;;;;5032006;28;20444;-53
2021/07/06 04:24:02;;;;;;;2.40;2.20;;;16.10;99.90;;;;;;5030859;28;20518;-53
2021/07/06 04:26:29;;;;;;;3.27;2.37;;;16.00;99.90;;;;;;5031776;28;20468;-54
2021/07/06 04:28:56;;;;;;;4.13;1.97;;;16.00;99.90;;;;;;5031760;28;20498;-54
2021/07/06 04:31:23;;;;;;;2.40;2.20;;;16.00;99.90;;;;;;5030098;28;20456;-54
2021/07/06 04:33:51;;;;;;;3.30;1.83;;;16.00;99.90;;;;;;5030993;28;20449;-53
2021/07/06 04:36:18;;;;;;;1.77;1.60;;;16.10;99.90;;;;;;5030633;28;20997;-54
2021/07/06 04:38:45;;;;;;;5.23;2.00;;;16.20;99.90;;;;;;5031333;28;20855;-54
2021/07/06 04:41:13;;;;;;;3.03;1.87;;;16.20;99.90;;;;;;5031432;28;20514;-53
2021/07/06 04:43:40;;;;;;;1.70;1.60;;;16.40;99.90;;;;;;5028775;28;20448;-54
2021/07/06 04:46:07;;;;;;;2.83;1.47;;;16.30;99.90;;;;;;5011942;28;20572;-54
2021/07/06 04:48:34;;;;;;;2.60;1.50;;;16.50;99.90;;;;;;5011953;28;20449;-53
2021/07/06 04:51:06;;;;;;;4.40;1.80;;;16.60;99.90;;;;;;5026253;28;20448;-54
2021/07/06 04:53:33;;;;;;;2.80;1.77;;;16.80;99.90;;;;;;5024618;28;20463;-54
2021/07/06 04:56:01;;;;;;;1.73;1.43;;;16.90;99.90;;;;;;5011575;28;20492;-54
2021/07/06 04:58:28;;;;;;;2.77;1.47;;;17.00;99.90;;;;;;5019619;28;20488;-53
2021/07/06 05:00:56;;;;;;;3.00;1.67;;;17.20;99.90;;;;;;5030876;28;20540;-54
2021/07/06 05:03:23;;;;;;;1.83;1.37;;;17.60;99.90;;;;;;5031019;28;20937;-53
2021/07/06 05:05:51;;;;;;;1.70;1.60;;;18.00;99.90;;;;;;5030508;28;20468;-53
2021/07/06 05:08:19;;;;;;;2.30;1.60;;;18.80;99.90;;;;;;5030929;28;20444;-54
2021/07/06 05:10:47;;;;;;;3.67;1.63;;;20.00;99.90;;;;;;5031117;28;20456;-54
2021/07/06 05:13:15;;;;;;;2.97;1.93;;;21.20;99.90;;;;;;5029134;28;20457;-53
2021/07/06 05:15:42;;;;;;;2.60;2.17;;;22.50;99.90;;;;;;5022554;28;20495;-53
2021/07/06 05:18:09;;;;;;;5.03;2.20;;;23.70;99.90;;;;;;5024307;28;20489;-53
2021/07/06 05:20:37;;;;;;;3.73;1.90;;;24.80;99.90;;;;;;5019980;28;20468;-55
2021/07/06 05:23:04;;;;;;;1.50;1.40;;;25.60;99.90;;;;;;5021891;28;20522;-54
2021/07/06 05:25:32;;;;;;;1.40;1.30;;;26.20;99.90;;;;;;5020181;28;20488;-54
2021/07/06 05:27:59;;;;;;;2.40;1.77;;;26.80;99.90;;;;;;5024166;28;20479;-54
2021/07/06 05:30:27;;;;;;;1.63;1.23;;;27.00;99.90;;;;;;5027662;28;20534;-54
2021/07/06 05:32:54;;;;;;;2.90;1.20;;;27.10;99.90;;;;;;5022129;28;20896;-54
2021/07/06 05:35:21;;;;;;;1.53;1.20;;;27.30;99.90;;;;;;5020721;28;20497;-54
2021/07/06 05:37:48;;;;;;;1.93;1.13;;;27.40;99.90;;;;;;5021360;28;20560;-54
2021/07/06 05:40:15;;;;;;;1.50;1.40;;;27.80;99.90;;;;;;5025902;28;20950;-55
2021/07/06 05:42:44;;;;;;;1.97;1.80;;;28.20;99.90;;;;;;5022066;28;20465;-54
2021/07/06 05:45:12;;;;;;;1.13;1.10;;;28.50;99.90;;;;;;5019733;28;20500;-55
2021/07/06 05:47:41;;;;;;;1.20;1.10;;;28.10;99.90;;;;;;5020903;28;20471;-54
2021/07/06 05:50:11;;;;;;;1.50;1.40;;;28.00;99.90;;;;;;5022637;28;20485;-54
2021/07/06 05:52:38;;;;;;;1.40;1.30;;;27.40;99.90;;;;;;5020965;28;20467;-54
2021/07/06 05:55:06;;;;;;;2.33;1.00;;;27.10;99.90;;;;;;5021024;28;20496;-54
2021/07/06 05:57:35;;;;;;;1.47;1.20;;;26.60;99.90;;;;;;5020993;28;20538;-54
2021/07/06 06:00:07;;;;;;;5.00;1.33;;;26.50;99.90;;;;;;5021416;28;20543;-54
2021/07/06 06:02:34;;;;;;;2.80;1.30;;;27.00;99.90;;;;;;5021779;28;20465;-54
2021/07/06 06:05:01;;;;;;;5.50;2.33;;;27.70;99.90;;;;;;5019622;28;20495;-55
2021/07/06 06:07:28;;;;;;;1.97;1.47;;;27.80;99.90;;;;;;5019099;28;20954;-54
2021/07/06 06:09:55;;;;;;;1.30;1.20;;;28.40;99.90;;;;;;5022702;28;20677;-54
2021/07/06 06:12:22;;;;;;;3.17;1.60;;;29.20;99.90;;;;;;5020181;28;20951;-55
2021/07/06 06:14:49;;;;;;;1.93;1.40;;;29.20;99.90;;;;;;5021259;28;20550;-54
2021/07/06 06:17:18;;;;;;;1.80;1.00;;;29.40;99.90;;;;;;5016231;28;20507;-54
2021/07/06 06:19:45;;;;;;;2.13;1.30;;;29.60;99.90;;;;;;5024486;28;20484;-53
2021/07/06 06:22:12;;;;;;;3.00;1.10;;;29.80;99.90;;;;;;5024844;28;20464;-55
2021/07/06 06:24:39;;;;;;;1.30;1.17;;;29.40;99.90;;;;;;5022760;28;20490;-54
2021/07/06 06:27:06;;;;;;;1.20;1.10;;;29.60;99.90;;;;;;5021267;28;20471;-54
2021/07/06 06:29:34;;;;;;;2.47;1.20;;;29.50;99.90;;;;;;5025758;28;21002;-55
2021/07/06 06:32:01;;;;;;;2.00;1.20;;;30.30;99.90;;;;;;5025868;28;20499;-54
2021/07/06 06:34:29;;;;;;;2.13;1.13;;;30.80;99.90;;;;;;5024998;28;20526;-55
2021/07/06 06:36:56;;;;;;;1.43;1.00;;;31.30;99.30;;;;;;5023926;28;20553;-54
2021/07/06 06:39:23;;;;;;;1.30;1.20;;;31.20;99.20;;;;;;5024768;28;20997;-54
2021/07/06 06:41:52;;;;;;;1.60;1.20;;;30.90;99.00;;;;;;5019036;28;20464;-54
2021/07/06 06:44:19;;;;;;;3.50;0.90;;;31.10;99.50;;;;;;5028783;28;20457;-55
2021/07/06 06:46:46;;;;;;;1.47;1.07;;;31.30;99.20;;;;;;5027120;28;20986;-55
2021/07/06 06:49:13;;;;;;;1.37;1.27;;;31.50;97.40;;;;;;5022632;28;20456;-54
2021/07/06 06:51:42;;;;;;;1.00;1.00;;;31.60;97.70;;;;;;5025297;28;20473;-54
2021/07/06 06:54:09;;;;;;;1.10;1.00;;;31.20;97.90;;;;;;5022996;28;20468;-55
2021/07/06 06:56:39;;;;;;;1.27;1.20;;;31.50;98.90;;;;;;5023986;28;21211;-54
2021/07/06 06:59:08;;;;;;;3.87;1.23;;;31.30;97.90;;;;;;5023373;28;20484;-56
2021/07/06 07:01:35;;;;;;;1.10;1.00;;;31.50;97.40;;;;;;5023481;28;20835;-54
2021/07/06 07:04:02;;;;;;;4.30;1.20;;;31.60;98.60;;;;;;5022980;28;20461;-54
2021/07/06 07:06:29;;;;;;;1.43;1.20;;;31.40;97.80;;;;;;5023438;28;20476;-55
2021/07/06 07:08:57;;;;;;;2.80;1.07;;;31.50;97.20;;;;;;5025154;28;20882;-55
2021/07/06 07:11:24;;;;;;;2.80;1.10;;;31.80;98.00;;;;;;5023926;28;20468;-55
2021/07/06 07:13:51;;;;;;;1.30;1.17;;;31.60;98.40;;;;;;5022264;28;20594;-54
2021/07/06 07:16:19;;;;;;;4.67;1.10;;;31.60;97.60;;;;;;5024791;28;20497;-55
2021/07/06 07:18:46;;;;;;;1.30;1.20;;;32.10;98.00;;;;;;5025720;28;20481;-54
2021/07/06 07:21:13;;;;;;;1.13;0.97;;;32.40;98.10;;;;;;5024533;28;20464;-55
2021/07/06 07:23:40;;;;;;;1.20;1.10;;;32.30;97.00;;;;;;5025066;28;20464;-55
2021/07/06 07:26:08;;;;;;;1.00;1.00;;;31.90;96.40;;;;;;5021298;28;20896;-55
2021/07/06 07:28:36;;;;;;;2.50;1.30;;;31.80;97.20;;;;;;5023654;28;20498;-55
2021/07/06 07:31:03;;;;;;;4.03;1.23;;;32.00;97.60;;;;;;5013367;28;20459;-55
2021/07/06 07:33:30;;;;;;;1.07;1.00;;;32.20;96.70;;;;;;5024465;28;20526;-55
2021/07/06 07:35:57;;;;;;;2.20;1.20;;;32.50;96.40;;;;;;5024816;28;20488;-54
2021/07/06 07:38:24;;;;;;;1.40;1.13;;;32.90;96.00;;;;;;5025094;28;20480;-54
2021/07/06 07:40:52;;;;;;;1.37;1.27;;;32.80;95.10;;;;;;5015482;28;20492;-55
2021/07/06 07:43:20;;;;;;;1.20;1.10;;;32.90;94.30;;;;;;5032705;28;20499;-55
2021/07/06 07:45:47;;;;;;;1.93;1.10;;;33.00;96.00;;;;;;5032176;28;20488;-57
2021/07/06 07:48:14;;;;;;;0.93;0.93;;;33.00;93.80;;;;;;5029455;28;20970;-54
2021/07/06 07:50:41;;;;;;;1.10;1.00;;;32.80;93.40;;;;;;5022836;28;20507;-55
2021/07/06 07:53:08;;;;;;;2.23;1.10;;;32.40;94.80;;;;;;5017749;28;20483;-54
2021/07/06 07:55:35;;;;;;;1.20;1.10;;;32.50;94.30;;;;;;5025812;28;21063;-54
2021/07/06 07:58:02;;;;;;;1.40;1.30;;;32.50;94.90;;;;;;5021189;28;20944;-55
2021/07/06 08:00:31;;;;;;;1.23;1.13;;;32.40;93.00;;;;;;5017313;28;20911;-55
2021/07/06 08:02:59;;;;;;;1.20;1.10;;;32.60;94.30;;;;;;5024354;28;20465;-55
2021/07/06 08:05:26;;;;;;;2.60;1.30;;;32.80;94.00;;;;;;5022421;28;20571;-55
2021/07/06 08:07:53;;;;;;;1.40;1.17;;;33.20;95.10;;;;;;5016329;28;20828;-55
2021/07/06 08:10:20;;;;;;;1.40;1.20;;;33.40;93.10;;;;;;5021106;28;20442;-55
2021/07/06 08:12:47;;;;;;;2.00;1.00;;;33.30;93.00;;;;;;5018603;28;20472;-55
2021/07/06 08:15:14;;;;;;;1.10;1.10;;;33.40;94.50;;;;;;5021816;28;20496;-55
2021/07/06 08:17:44;;;;;;;1.83;1.43;;;33.60;93.30;;;;;;5026718;28;20522;-55
2021/07/06 08:20:12;;;;;;;2.03;1.57;;;33.70;94.40;;;;;;5021863;28;20542;-55
2021/07/06 08:22:39;;;;;;;2.17;1.17;;;34.20;92.00;;;;;;5019256;28;20871;-55
2021/07/06 08:25:07;;;;;;;1.90;1.43;;;34.60;91.70;;;;;;5025874;28;20559;-55
2021/07/06 08:27:34;;;;;;;2.10;1.50;;;34.20;92.90;;;;;;5020970;28;20478;-54
2021/07/06 08:30:02;;;;;;;3.70;1.57;;;32.20;97.10;;;;;;5019871;28;20453;-55
2021/07/06 08:32:29;;;;;;;5.57;1.50;;;31.80;98.30;;;;;;5024108;28;20468;-55
2021/07/06 08:34:57;;;;;;;1.50;1.27;;;31.80;98.20;;;;;;5017675;28;20485;-56
2021/07/06 08:37:24;;;;;;;5.40;1.60;;;31.80;98.90;;;;;;5022064;28;20510;-56
2021/07/06 08:39:51;;;;;;;1.83;1.40;;;32.60;97.60;;;;;;5020954;28;21000;-56
2021/07/06 08:42:18;;;;;;;1.30;1.30;;;33.30;97.00;;;;;;5023986;28;21044;-55
2021/07/06 08:44:45;;;;;;;5.90;1.50;;;33.80;96.10;;;;;;5026169;28;20833;-56
2021/07/06 08:47:16;;;;;;;1.60;1.40;;;33.90;96.10;;;;;;5021851;28;20461;-56
2021/07/06 08:49:46;;;;;;;1.90;1.30;;;34.20;97.30;;;;;;5016450;28;20465;-55
2021/07/06 08:52:17;;;;;;;1.77;1.63;;;33.10;98.10;;;;;;5025067;28;20970;-55
2021/07/06 08:54:44;;;;;;;2.27;1.70;;;32.90;98.60;;;;;;5023644;28;20889;-55
2021/07/06 08:57:12;;;;;;;2.00;1.90;;;32.40;99.60;;;;;;5023213;28;20558;-54
2021/07/06 08:59:40;;;;;;;3.40;2.30;;;30.90;99.90;;;;;;5022397;28;21112;-54
2021/07/06 09:02:08;;;;;;;2.57;2.03;;;29.70;99.90;;;;;;5019601;28;20848;-54
2021/07/06 09:04:45;;;;;;;5.57;2.13;;;30.50;99.90;;;;;;5020797;28;20469;-55
2021/07/06 09:07:14;;;;;;;10.57;2.20;;;31.20;99.90;;;;;;5022814;28;20456;-54
2021/07/06 09:09:41;;;;;;;3.80;2.10;;;29.50;99.90;;;;;;5021578;28;21036;-54
2021/07/06 09:12:11;;;;;;;4.20;2.23;;;30.10;99.90;;;;;;5024760;28;20822;-55
2021/07/06 09:14:40;;;;;;;3.47;2.27;;;30.10;99.90;;;;;;5019267;28;20468;-55
2021/07/06 09:17:12;;;;;;;2.90;2.37;;;29.00;99.90;;;;;;5023700;28;21944;-54
2021/07/06 09:19:42;;;;;;;3.53;2.50;;;28.10;99.90;;;;;;5029720;28;20484;-57
2021/07/06 09:22:11;;;;;;;4.47;2.50;;;27.10;99.90;;;;;;5020695;28;20506;-54
2021/07/06 09:24:40;;;;;;;2.40;2.20;;;27.00;99.90;;;;;;5018950;28;20547;-54
2021/07/06 09:27:23;;;;;;;6.53;2.80;;;27.00;99.90;;;;;;5029790;28;20456;-53
2021/07/06 09:30:19;;;;;;;6.23;2.40;;;27.70;99.90;;;;;;5022189;28;21022;-53
2021/07/06 09:32:48;;;;;;;2.33;2.10;;;27.40;99.90;;;;;;4985142;28;20977;-52
2021/07/06 09:35:17;;;;;;;5.30;2.43;;;27.70;99.90;;;;;;5021803;28;20538;-53
2021/07/06 09:37:50;;;;;;;2.50;2.30;;;27.60;99.90;;;;;;5022454;28;20465;-53
2021/07/06 09:40:27;;;;;;;2.77;2.10;;;27.20;99.90;;;;;;5023139;28;20539;-52
2021/07/06 09:43:13;;;;;;;3.80;2.60;;;27.60;99.90;;;;;;5024499;28;20493;-53
2021/07/06 09:45:40;;;;;;;2.63;2.17;;;28.10;99.90;;;;;;5022263;28;20484;-53
2021/07/06 09:48:08;;;;;;;2.77;2.57;;;28.30;99.90;;;;;;5020288;28;20465;-53
2021/07/06 09:50:35;;;;;;;3.87;2.00;;;28.30;99.90;;;;;;5020600;28;20512;-52
2021/07/06 09:53:02;;;;;;;2.67;2.47;;;27.40;99.90;;;;;;5020019;28;20460;-52
2021/07/06 09:55:31;;;;;;;3.27;2.20;;;28.00;99.90;;;;;;5043099;22;20572;-54
2021/07/06 09:58:04;;;;;;;6.57;1.83;;;28.10;99.90;;;;;;4987131;28;20470;-52
2021/07/06 10:00:32;;;;;;;4.00;2.10;;;27.60;99.90;;;;;;4987360;28;20487;-51
2021/07/06 10:03:01;;;;;;;2.40;2.20;;;27.40;99.90;;;;;;4978620;28;20466;-52
2021/07/06 10:05:31;;;;;;;3.93;2.33;;;27.20;99.90;;;;;;4984969;28;20462;-52
2021/07/06 10:07:58;;;;;;;2.40;2.20;;;26.90;99.90;;;;;;4984933;28;20453;-51
2021/07/06 10:10:26;;;;;;;6.23;2.50;;;26.70;99.90;;;;;;4989826;28;20464;-51
2021/07/06 10:12:56;;;;;;;4.70;2.20;;;26.60;99.90;;;;;;4986293;28;20458;-50
2021/07/06 10:15:24;;;;;;;3.00;2.07;;;25.90;99.90;;;;;;4988300;28;20454;-51
2021/07/06 10:17:53;;;;;;;4.40;2.60;;;25.80;99.90;;;;;;4991810;28;20458;-52
2021/07/06 10:20:24;;;;;;;2.60;2.40;;;26.20;99.90;;;;;;4988216;28;20486;-52
2021/07/06 10:22:53;;;;;;;3.50;3.20;;;26.80;99.90;;;;;;4991217;28;20466;-51
2021/07/06 10:25:24;;;;;;;5.22;3.92;;;26.90;99.90;;;;;;4983176;28;20538;-52
2021/07/06 10:27:55;;;;;;;2.60;2.40;;;27.40;99.90;;;;;;4991999;28;20231;-52
2021/07/06 10:30:26;;;;;;;2.80;2.60;;;28.10;99.90;;;;;;4992095;28;20462;-52
2021/07/06 10:32:55;;;;;;;1.93;1.83;;;28.60;99.90;;;;;;4990958;28;21742;-52
2021/07/06 10:35:48;;;;;;;2.80;2.40;;;28.90;99.90;;;;;;4988422;28;20473;-52
2021/07/06 10:38:51;;;;;;;2.23;2.13;;;29.00;99.90;;;;;;4994901;28;20439;-51
2021/07/06 10:41:43;;;;;;;3.73;2.90;;;29.00;99.90;;;;;;4983341;28;20486;-52
2021/07/06 10:44:17;;;;;;;3.83;2.87;;;29.40;99.90;;;;;;4987968;28;20491;-51
2021/07/06 10:46:46;;;;;;;2.63;2.43;;;29.40;99.90;;;;;;4991943;28;20890;-53
2021/07/06 10:49:30;;;;;;;2.13;2.03;;;29.50;99.90;;;;;;4988384;28;20953;-52
2021/07/06 10:51:59;;;;;;;4.93;2.63;;;29.70;99.90;;;;;;4980631;28;20521;-53
2021/07/06 10:54:30;;;;;;;5.23;2.63;;;30.00;99.90;;;;;;4984347;28;20979;-51
2021/07/06 10:56:59;;;;;;;4.83;2.03;;;30.50;99.90;;;;;;4991904;28;20568;-52
2021/07/06 10:59:34;;;;;;;2.80;2.03;;;30.90;99.90;;;;;;4993208;28;21043;-52
2021/07/06 11:02:02;;;;;;;2.33;2.20;;;30.90;99.90;;;;;;4986602;28;20466;-53
2021/07/06 11:04:56;;;;;;;3.13;2.33;;;30.80;99.90;;;;;;4990009;28;20446;-52
2021/07/06 11:07:56;;;;;;;2.20;2.10;;;30.20;99.90;;;;;;4969404;28;20999;-51
2021/07/06 11:10:40;;;;;;;2.77;2.57;;;30.00;99.90;;;;;;4985574;28;20462;-52
2021/07/06 11:13:21;;;;;;;3.27;2.47;;;30.30;99.90;;;;;;4993276;28;20581;-52
2021/07/06 11:15:50;;;;;;;5.80;1.97;;;30.40;99.90;;;;;;4988474;28;20492;-52
2021/07/06 11:18:17;;;;;;;2.97;2.63;;;30.10;99.90;;;;;;4991706;28;20476;-52
2021/07/06 11:20:47;;;;;;;2.77;2.23;;;29.80;99.90;;;;;;4989650;28;20481;-52
2021/07/06 11:23:21;;;;;;;6.40;2.83;;;29.70;99.90;;;;;;4992673;28;20948;-52
2021/07/06 11:25:49;;;;;;;2.70;2.50;;;29.60;99.90;;;;;;4993225;28;20477;-51
2021/07/06 11:28:25;;;;;;;2.20;2.10;;;29.70;99.90;;;;;;4993911;28;20442;-51
2021/07/06 11:30:55;;;;;;;3.30;2.10;;;29.30;99.90;;;;;;4993871;28;20489;-50
2021/07/06 11:33:24;;;;;;;2.17;2.07;;;29.10;99.90;;;;;;4993580;28;20505;-51
2021/07/06 11:35:54;;;;;;;2.53;2.30;;;29.00;99.90;;;;;;4993860;28;20557;-52
2021/07/06 11:38:23;;;;;;;2.33;2.23;;;29.20;99.90;;;;;;4992980;28;20446;-51
2021/07/06 11:40:52;;;;;;;2.50;2.30;;;29.70;99.90;;;;;;4993769;28;20486;-52
2021/07/06 11:43:21;;;;;;;3.40;2.67;;;30.10;99.90;;;;;;4992958;28;20454;-52
2021/07/06 11:45:49;;;;;;;2.50;2.30;;;29.90;99.90;;;;;;4985316;28;20537;-52
2021/07/06 11:48:19;;;;;;;2.63;2.43;;;29.70;99.90;;;;;;4992921;28;20944;-52
2021/07/06 11:50:48;;;;;;;2.43;2.23;;;29.90;99.90;;;;;;4993629;28;20447;-51
2021/07/06 11:53:17;;;;;;;3.00;2.17;;;29.60;99.90;;;;;;4993052;28;20521;-51
2021/07/06 11:55:44;;;;;;;3.07;2.53;;;29.50;99.90;;;;;;4991827;28;21003;-52
2021/07/06 11:58:12;;;;;;;2.10;2.00;;;29.50;99.90;;;;;;4984676;28;20506;-51
2021/07/06 12:00:42;;;;;;;2.30;2.10;;;29.50;99.90;;;;;;4987348;28;20514;-51
2021/07/06 12:03:22;;;;;;;2.63;2.43;;;29.30;99.90;;;;;;4993255;28;20869;-52
2021/07/06 12:05:50;;;;;;;2.90;2.33;;;29.10;99.90;;;;;;4987508;28;20477;-51
2021/07/06 12:08:19;;;;;;;2.90;2.33;;;28.40;99.90;;;;;;4993162;28;20458;-51
2021/07/06 12:11:02;;;;;;;4.13;2.10;;;28.20;99.90;;;;;;4993067;28;20454;-51
2021/07/06 12:13:31;;;;;;;2.53;2.33;;;28.30;99.90;;;;;;4991192;28;20462;-51
2021/07/06 12:16:02;;;;;;;2.80;2.20;;;28.40;99.90;;;;;;4990476;28;20504;-52
2021/07/06 12:18:32;;;;;;;2.40;2.00;;;28.70;99.90;;;;;;4992792;28;20520;-52
2021/07/06 12:21:02;;;;;;;3.47;2.37;;;28.90;99.90;;;;;;4992928;28;20482;-51
2021/07/06 12:23:30;;;;;;;2.30;2.00;;;28.90;99.90;;;;;;4992866;28;20959;-51
2021/07/06 12:25:59;;;;;;;2.53;2.33;;;28.70;99.90;;;;;;4993122;28;20513;-52
2021/07/06 12:28:27;;;;;;;3.33;2.27;;;28.60;99.90;;;;;;4992908;28;20582;-51
2021/07/06 12:31:13;;;;;;;2.73;2.10;;;28.80;99.90;;;;;;4992693;28;20509;-51
2021/07/06 12:33:41;;;;;;;3.50;2.50;;;29.00;99.90;;;;;;4992511;28;20975;-52
2021/07/06 12:36:08;;;;;;;2.90;2.70;;;28.00;99.90;;;;;;4993080;28;20474;-51
2021/07/06 12:38:35;;;;;;;2.60;2.40;;;27.90;99.90;;;;;;4992796;28;20505;-50
2021/07/06 12:41:17;;;;;;;4.07;3.07;;;27.60;99.90;;;;;;4992825;28;20490;-51
2021/07/06 12:43:44;;;;;;;3.73;2.70;;;27.50;99.90;;;;;;4992416;28;20542;-51
2021/07/06 12:46:13;;;;;;;2.33;2.23;;;27.60;99.90;;;;;;4992704;28;20479;-50
2021/07/06 12:48:47;;;;;;;2.60;2.40;;;27.90;99.90;;;;;;4992801;28;20460;-51
2021/07/06 12:51:16;;;;;;;2.80;2.53;;;28.00;99.90;;;;;;4973461;28;20526;-51
2021/07/06 12:53:56;;;;;;;2.67;2.47;;;27.80;99.90;;;;;;4973004;28;20451;-50
2021/07/06 12:56:25;;;;;;;2.63;2.50;;;27.60;99.90;;;;;;4973138;28;20573;-51
2021/07/06 12:58:53;;;;;;;2.57;2.37;;;27.30;99.90;;;;;;4986613;28;20528;-51